Time;durP1;ratioP1;P1;durP2;ratioP2;P2;SDS_P1;SDS_P2;PMS_P1;PMS_P2;Temp;Humidity;BMP_temperature;BMP_pressure;BME280_temperature;BME280_humidity;BME280_pressure;Samples;Min_cycle;Max_cycle;Signal;HPM_P1;HPM_P2
2022/04/20 00:00:43;;;;;;;17.15;9.73;;;9.20;66.70;;;;;;2331715;57;21062;-81
2022/04/20 00:03:10;;;;;;;15.73;8.07;;;9.10;66.80;;;;;;2575693;54;21166;-80
2022/04/20 00:05:38;;;;;;;19.00;8.65;;;9.10;67.60;;;;;;2332775;57;21050;-81
2022/04/20 00:08:06;;;;;;;12.45;7.87;;;9.10;67.00;;;;;;2574401;53;21058;-81
2022/04/20 00:10:33;;;;;;;15.27;8.52;;;9.10;67.10;;;;;;2331400;57;21129;-81
2022/04/20 00:13:00;;;;;;;17.77;9.07;;;9.10;67.10;;;;;;2331487;57;21177;-81
2022/04/20 00:15:27;;;;;;;16.80;9.25;;;9.10;67.00;;;;;;2331163;57;21050;-81
2022/04/20 00:17:55;;;;;;;12.82;8.25;;;9.10;67.10;;;;;;2331138;57;21122;-81
2022/04/20 00:20:22;;;;;;;13.82;8.55;;;9.10;67.20;;;;;;2330610;57;21046;-80
2022/04/20 00:22:49;;;;;;;18.55;9.52;;;9.10;67.10;;;;;;2331365;57;21120;-80
2022/04/20 00:25:16;;;;;;;16.90;9.07;;;9.10;66.80;;;;;;2330495;57;21137;-80
2022/04/20 00:27:43;;;;;;;15.40;8.65;;;9.10;66.80;;;;;;2574719;53;21124;-81
2022/04/20 00:30:13;;;;;;;16.48;9.63;;;9.10;66.80;;;;;;2574933;53;21058;-80
2022/04/20 00:32:41;;;;;;;16.87;9.52;;;9.10;66.80;;;;;;2330875;57;21065;-81
2022/04/20 00:35:10;;;;;;;17.67;9.20;;;9.10;66.70;;;;;;2574265;53;21209;-81
2022/04/20 00:37:40;;;;;;;14.35;9.07;;;9.10;66.70;;;;;;2574044;54;21046;-81
2022/04/20 00:40:10;;;;;;;15.50;9.60;;;9.10;66.80;;;;;;2331235;57;21097;-80
2022/04/20 00:42:40;;;;;;;22.45;10.93;;;9.10;66.50;;;;;;2574484;54;21094;-81
2022/04/20 00:45:10;;;;;;;14.18;9.07;;;9.10;66.40;;;;;;2574779;53;21098;-80
2022/04/20 00:47:38;;;;;;;20.42;9.93;;;9.00;66.30;;;;;;2574644;54;21082;-81
2022/04/20 00:50:07;;;;;;;18.80;10.15;;;9.00;66.30;;;;;;2574632;54;21110;-80
2022/04/20 00:52:34;;;;;;;16.40;9.63;;;9.00;66.10;;;;;;2330638;57;21117;-81
2022/04/20 00:55:02;;;;;;;16.45;8.93;;;9.00;65.90;;;;;;2574602;54;21048;-81
2022/04/20 00:57:29;;;;;;;18.02;9.60;;;9.00;65.90;;;;;;2331043;57;21038;-81
2022/04/20 00:59:59;;;;;;;17.65;9.73;;;9.00;65.80;;;;;;2331209;57;21085;-80
2022/04/20 01:02:28;;;;;;;15.45;9.38;;;9.00;65.70;;;;;;2574739;53;21046;-81
2022/04/20 01:04:55;;;;;;;20.02;9.90;;;9.00;65.70;;;;;;2331287;57;21126;-81
2022/04/20 01:07:22;;;;;;;21.52;9.98;;;9.00;65.90;;;;;;2331200;57;21066;-81
2022/04/20 01:09:49;;;;;;;17.40;9.15;;;8.90;66.10;;;;;;2330696;57;21038;-81
2022/04/20 01:12:18;;;;;;;17.37;9.95;;;8.90;66.20;;;;;;2574245;53;21106;-81
2022/04/20 01:14:46;;;;;;;20.48;8.68;;;8.90;66.20;;;;;;2574821;53;21050;-81
2022/04/20 01:17:13;;;;;;;13.30;8.32;;;8.90;66.20;;;;;;2330975;57;21110;-81
2022/04/20 01:19:40;;;;;;;16.35;8.85;;;8.90;66.20;;;;;;2331493;57;21052;-81
2022/04/20 01:22:09;;;;;;;13.00;8.80;;;8.90;65.90;;;;;;2331332;57;21030;-81
2022/04/20 01:24:38;;;;;;;16.33;9.02;;;8.90;65.70;;;;;;2573970;54;21126;-80
2022/04/20 01:27:06;;;;;;;18.73;9.15;;;8.90;66.00;;;;;;2574170;54;21046;-81
2022/04/20 01:29:34;;;;;;;16.67;9.32;;;8.90;66.30;;;;;;2575040;54;21054;-80
2022/04/20 01:32:01;;;;;;;16.37;9.35;;;8.90;66.30;;;;;;2331591;57;21097;-81
2022/04/20 01:34:28;;;;;;;14.15;8.52;;;8.80;65.90;;;;;;2575025;54;21050;-81
2022/04/20 01:36:56;;;;;;;14.15;8.18;;;8.80;65.80;;;;;;2330964;57;21038;-81
2022/04/20 01:39:23;;;;;;;14.27;8.48;;;8.80;65.90;;;;;;2331393;57;21126;-81
2022/04/20 01:41:50;;;;;;;13.80;8.88;;;8.80;66.00;;;;;;2573423;53;21094;-81
2022/04/20 01:44:17;;;;;;;15.63;8.73;;;8.80;65.80;;;;;;2331329;57;21090;-81
2022/04/20 01:46:44;;;;;;;14.00;8.13;;;8.80;65.60;;;;;;2331247;57;21054;-81
2022/04/20 01:49:11;;;;;;;16.98;8.20;;;8.90;65.50;;;;;;2331184;57;21046;-81
2022/04/20 01:51:50;;;;;;;10.52;6.90;;;8.80;65.30;;;;;;2331346;57;21066;-81
2022/04/20 01:54:18;;;;;;;14.77;7.53;;;8.80;65.30;;;;;;2330932;57;21051;-80
2022/04/20 01:56:46;;;;;;;12.13;6.93;;;8.80;65.10;;;;;;2330370;57;21634;-81
2022/04/20 01:59:13;;;;;;;14.50;7.95;;;8.80;65.20;;;;;;2575033;53;21133;-81
2022/04/20 02:04:26;;;;;;;12.65;6.90;;;8.70;65.20;;;;;;2331217;57;21086;-81
2022/04/20 02:06:54;;;;;;;14.45;7.35;;;8.70;66.20;;;;;;2331242;57;21573;-81
2022/04/20 02:09:22;;;;;;;11.82;7.25;;;8.60;65.70;;;;;;2331443;57;21110;-81
2022/04/20 02:11:49;;;;;;;13.80;7.32;;;8.60;65.70;;;;;;2329939;57;21046;-81
2022/04/20 02:14:16;;;;;;;13.35;7.25;;;8.60;65.50;;;;;;2574607;54;21595;-81
2022/04/20 02:16:43;;;;;;;14.90;7.18;;;8.60;65.40;;;;;;2574573;54;21058;-81
2022/04/20 02:19:11;;;;;;;14.60;7.47;;;8.60;65.40;;;;;;2574683;54;21066;-80
2022/04/20 02:21:38;;;;;;;12.27;6.30;;;8.60;65.40;;;;;;2331387;57;21546;-81
2022/04/20 02:24:05;;;;;;;11.38;5.85;;;8.60;65.60;;;;;;2574462;54;21579;-81
2022/04/20 02:26:33;;;;;;;10.80;6.37;;;8.60;65.60;;;;;;2574441;53;21066;-81
2022/04/20 02:29:00;;;;;;;11.65;6.87;;;8.60;65.70;;;;;;2574915;54;21042;-80
2022/04/20 02:31:27;;;;;;;11.82;6.03;;;8.60;65.60;;;;;;2577351;53;21090;-80
2022/04/20 02:33:54;;;;;;;11.32;7.00;;;8.50;65.40;;;;;;2575257;54;21109;-81
2022/04/20 02:36:22;;;;;;;10.25;6.35;;;8.50;65.30;;;;;;2574331;54;21093;-81
2022/04/20 02:38:50;;;;;;;8.43;5.28;;;8.50;65.40;;;;;;2330497;57;21132;-81
2022/04/20 02:41:17;;;;;;;10.65;6.03;;;8.50;65.40;;;;;;2331354;57;21554;-81
2022/04/20 02:43:45;;;;;;;10.93;6.62;;;8.50;65.50;;;;;;2331288;57;21110;-80
2022/04/20 02:46:12;;;;;;;11.35;6.32;;;8.50;65.50;;;;;;2330032;57;21054;-81
2022/04/20 02:48:41;;;;;;;9.15;5.87;;;8.40;65.40;;;;;;2574761;54;21094;-81
2022/04/20 02:51:08;;;;;;;11.18;5.62;;;8.50;65.60;;;;;;2575162;53;21062;-81
2022/04/20 02:53:35;;;;;;;10.35;6.60;;;8.50;65.80;;;;;;2574977;53;21070;-81
2022/04/20 02:56:03;;;;;;;10.95;5.93;;;8.40;65.70;;;;;;2574746;54;21133;-82
2022/04/20 02:58:30;;;;;;;14.23;7.10;;;8.40;65.60;;;;;;2574617;54;21700;-81
2022/04/20 03:00:57;;;;;;;10.57;6.43;;;8.40;65.00;;;;;;2331393;57;21055;-81
2022/04/20 03:03:24;;;;;;;9.60;5.70;;;8.40;65.60;;;;;;2330602;57;21554;-81
2022/04/20 03:05:53;;;;;;;14.48;6.25;;;8.40;65.50;;;;;;2331115;57;21042;-81
2022/04/20 03:08:21;;;;;;;8.13;5.57;;;8.40;65.50;;;;;;2575021;54;21066;-81
2022/04/20 03:10:48;;;;;;;10.55;5.72;;;8.30;65.40;;;;;;2574911;53;21050;-82
2022/04/20 03:13:15;;;;;;;8.32;5.45;;;8.30;65.40;;;;;;2330987;57;21161;-81
2022/04/20 03:15:42;;;;;;;12.20;6.70;;;8.30;65.40;;;;;;2574289;54;21053;-82
2022/04/20 03:18:10;;;;;;;9.35;6.05;;;8.30;65.40;;;;;;2330249;57;21074;-81
2022/04/20 03:20:37;;;;;;;10.20;6.15;;;8.30;65.40;;;;;;2330325;57;21050;-81
2022/04/20 03:23:05;;;;;;;10.65;5.70;;;8.30;65.50;;;;;;2330382;57;21129;-81
2022/04/20 03:25:33;;;;;;;7.85;5.62;;;8.20;65.20;;;;;;2574375;53;21117;-81
2022/04/20 03:28:00;;;;;;;10.57;6.28;;;8.30;65.00;;;;;;2574450;54;21702;-81
2022/04/20 03:30:28;;;;;;;9.07;6.37;;;8.20;64.80;;;;;;2330819;57;21086;-81
2022/04/20 03:32:55;;;;;;;10.40;7.05;;;8.20;64.80;;;;;;2573781;54;21070;-81
2022/04/20 03:35:23;;;;;;;11.45;5.95;;;8.20;64.90;;;;;;2329564;57;21042;-81
2022/04/20 03:37:50;;;;;;;10.32;5.40;;;8.20;64.80;;;;;;2331237;57;21118;-81
2022/04/20 03:40:18;;;;;;;8.63;5.55;;;8.20;64.80;;;;;;2574574;53;21134;-81
2022/04/20 03:42:45;;;;;;;10.40;5.47;;;8.10;64.50;;;;;;2330823;57;21640;-81
2022/04/20 03:45:12;;;;;;;11.20;5.53;;;8.10;64.60;;;;;;2330689;57;21109;-82
2022/04/20 03:47:39;;;;;;;19.92;5.68;;;8.10;64.70;;;;;;2574516;54;21090;-82
2022/04/20 03:50:09;;;;;;;9.65;6.22;;;8.10;64.80;;;;;;2574512;53;21035;-81
2022/04/20 03:52:38;;;;;;;9.38;5.82;;;8.10;64.60;;;;;;2574303;54;21070;-81
2022/04/20 03:55:07;;;;;;;9.50;5.40;;;8.10;64.60;;;;;;2331747;57;21057;-81
2022/04/20 03:57:34;;;;;;;11.00;6.12;;;8.00;64.60;;;;;;2331544;57;21129;-80
2022/04/20 04:00:03;;;;;;;10.85;5.45;;;8.00;64.60;;;;;;2331349;57;21054;-80
2022/04/20 04:02:30;;;;;;;10.40;6.15;;;8.00;64.70;;;;;;2574513;53;21181;-81
2022/04/20 04:04:57;;;;;;;11.00;6.97;;;8.00;64.90;;;;;;2574170;53;21121;-80
2022/04/20 04:07:25;;;;;;;10.07;5.82;;;8.00;64.70;;;;;;2574312;54;21169;-80
2022/04/20 04:09:52;;;;;;;10.52;6.00;;;8.00;64.90;;;;;;2330822;57;21066;-81
2022/04/20 04:12:23;;;;;;;10.60;6.55;;;8.00;65.10;;;;;;2574621;53;21062;-81
2022/04/20 04:14:50;;;;;;;10.38;6.35;;;8.00;65.10;;;;;;2575271;54;21054;-81
2022/04/20 04:17:17;;;;;;;11.55;5.97;;;7.90;65.10;;;;;;2330420;57;21061;-81
2022/04/20 04:19:45;;;;;;;9.10;5.70;;;7.90;65.10;;;;;;2330912;57;21074;-80
2022/04/20 04:24:48;;;;;;;13.00;7.50;;;7.90;65.10;;;;;;2333255;57;27819;-74
2022/04/20 04:27:16;;;;;;;12.20;6.65;;;7.40;68.60;;;;;;2368542;56;21189;-77
2022/04/20 04:29:43;;;;;;;9.32;5.62;;;7.70;67.60;;;;;;2628662;52;21608;-77
2022/04/20 04:32:12;;;;;;;8.77;5.45;;;7.90;67.00;;;;;;2374983;56;21384;-75
2022/04/20 04:34:40;;;;;;;10.43;6.10;;;7.90;66.60;;;;;;2374430;56;21133;-76
2022/04/20 04:37:09;;;;;;;8.95;6.30;;;7.90;65.90;;;;;;2373261;56;21134;-74
2022/04/20 04:39:36;;;;;;;10.85;6.45;;;8.00;65.50;;;;;;2374438;56;21058;-75
2022/04/20 04:42:04;;;;;;;8.60;5.43;;;8.00;65.40;;;;;;2627089;52;21106;-75
2022/04/20 04:44:32;;;;;;;8.25;5.43;;;8.00;65.40;;;;;;2375175;56;21035;-75
2022/04/20 04:49:45;;;;;;;8.77;5.25;;;8.00;65.40;;;;;;2374889;56;21047;-74
2022/04/20 04:52:12;;;;;;;11.30;6.65;;;8.10;65.40;;;;;;2374704;56;21090;-76
2022/04/20 04:54:40;;;;;;;9.60;5.62;;;8.00;65.60;;;;;;2375074;56;21039;-76
2022/04/20 04:57:08;;;;;;;7.90;5.53;;;8.00;65.80;;;;;;2372891;56;21122;-77
2022/04/20 04:59:36;;;;;;;9.38;5.55;;;8.00;66.20;;;;;;2374667;56;21130;-76
2022/04/20 05:02:05;;;;;;;10.45;5.32;;;8.10;66.60;;;;;;2372717;56;21070;-76
2022/04/20 05:04:32;;;;;;;9.30;5.87;;;8.10;67.00;;;;;;2372997;56;21601;-76
2022/04/20 05:06:59;;;;;;;8.60;5.55;;;8.10;67.10;;;;;;2625580;52;21099;-77
2022/04/20 05:12:04;;;;;;;9.30;5.30;;;8.20;67.30;;;;;;2328239;57;22079;-73
2022/04/20 05:14:31;;;;;;;10.00;5.57;;;8.20;67.20;;;;;;2595020;53;21033;-76
2022/04/20 05:16:59;;;;;;;13.18;6.00;;;8.30;67.10;;;;;;2593683;53;21033;-76
2022/04/20 05:19:29;;;;;;;13.95;6.43;;;8.30;66.90;;;;;;2344794;57;21047;-75
2022/04/20 05:21:57;;;;;;;11.00;5.70;;;8.40;66.90;;;;;;2592826;53;21116;-76
2022/04/20 05:24:24;;;;;;;7.82;5.80;;;8.40;66.90;;;;;;2591846;53;21127;-76
2022/04/20 05:26:52;;;;;;;11.73;6.65;;;8.40;67.00;;;;;;2592549;53;21041;-75
2022/04/20 05:29:19;;;;;;;8.50;5.18;;;8.40;67.30;;;;;;2593858;53;21037;-74
2022/04/20 05:31:51;;;;;;;9.68;5.68;;;8.50;67.60;;;;;;2345972;57;21136;-75
2022/04/20 05:34:19;;;;;;;8.55;5.47;;;8.50;67.60;;;;;;2346410;57;21526;-74
2022/04/20 05:42:18;;;;;;;7.50;4.43;;;8.60;67.90;;;;;;2345345;57;21005;-75
2022/04/20 05:44:46;;;;;;;10.85;6.10;;;8.50;68.90;;;;;;2346014;57;21024;-76
2022/04/20 05:47:14;;;;;;;8.10;6.05;;;8.50;69.20;;;;;;2593568;53;21059;-75
2022/04/20 05:49:41;;;;;;;13.38;6.12;;;8.50;68.40;;;;;;2346144;57;21136;-76
2022/04/20 05:52:09;;;;;;;8.68;5.97;;;8.60;68.50;;;;;;2594189;52;21036;-77
2022/04/20 05:54:36;;;;;;;8.10;5.28;;;8.50;68.60;;;;;;2346931;57;21128;-76
2022/04/20 05:57:04;;;;;;;7.60;5.00;;;8.60;68.70;;;;;;2346528;57;21570;-75
2022/04/20 05:59:32;;;;;;;10.25;6.30;;;8.60;68.60;;;;;;2345797;57;21060;-75
2022/04/20 06:01:59;;;;;;;11.00;6.03;;;8.70;68.60;;;;;;2594379;53;21044;-77
2022/04/20 06:04:28;;;;;;;12.02;6.62;;;8.70;68.50;;;;;;2346577;57;21570;-76
2022/04/20 06:06:55;;;;;;;9.45;5.97;;;8.70;68.70;;;;;;2346747;57;21119;-76
2022/04/20 06:09:22;;;;;;;10.27;6.20;;;8.80;68.80;;;;;;2593819;53;21642;-75
2022/04/20 06:11:52;;;;;;;11.55;7.68;;;8.80;68.80;;;;;;2594034;52;21046;-77
2022/04/20 06:14:20;;;;;;;11.68;5.95;;;8.90;69.00;;;;;;2593171;53;21097;-76
2022/04/20 06:16:47;;;;;;;11.23;6.85;;;8.90;69.00;;;;;;2593352;53;21056;-74
2022/04/20 06:19:15;;;;;;;10.43;6.72;;;8.90;68.80;;;;;;2346678;57;22542;-75
2022/04/20 06:21:42;;;;;;;9.00;6.70;;;8.90;68.80;;;;;;2346242;57;21121;-75
2022/04/20 06:24:09;;;;;;;9.98;6.70;;;9.00;68.80;;;;;;2345843;57;21052;-73
2022/04/20 06:26:37;;;;;;;9.82;6.30;;;9.00;67.90;;;;;;2345016;57;21044;-73
2022/04/20 06:29:04;;;;;;;11.65;7.20;;;9.10;68.60;;;;;;2592804;53;21538;-75
2022/04/20 06:31:32;;;;;;;11.02;6.28;;;9.10;68.80;;;;;;2345418;57;21128;-75
2022/04/20 06:33:59;;;;;;;12.55;7.35;;;9.10;69.00;;;;;;2592629;53;21020;-74
2022/04/20 06:36:27;;;;;;;10.85;6.70;;;9.20;69.00;;;;;;2345548;57;21060;-74
2022/04/20 06:38:55;;;;;;;11.00;7.18;;;9.20;69.40;;;;;;2345237;57;21054;-75
2022/04/20 06:41:23;;;;;;;11.55;7.12;;;9.20;70.30;;;;;;2345629;57;21096;-74
2022/04/20 06:43:50;;;;;;;13.05;7.53;;;9.20;69.40;;;;;;2345348;57;21127;-77
2022/04/20 06:46:17;;;;;;;11.70;7.18;;;9.30;69.50;;;;;;2345628;57;21036;-76
2022/04/20 06:48:45;;;;;;;12.82;6.75;;;9.20;69.70;;;;;;2345533;57;21367;-75
2022/04/20 06:51:12;;;;;;;11.57;6.37;;;9.30;69.80;;;;;;2345657;57;21040;-77
2022/04/20 06:59:14;;;;;;;11.77;5.75;;;9.40;69.80;;;;;;2345443;57;21032;-75
2022/04/20 07:01:42;;;;;;;10.07;6.07;;;9.40;70.20;;;;;;2345605;57;21123;-76
2022/04/20 07:04:09;;;;;;;9.27;5.93;;;9.50;69.60;;;;;;2345765;57;21116;-75
2022/04/20 07:06:36;;;;;;;9.65;5.47;;;9.50;69.30;;;;;;2345150;57;21052;-74
2022/04/20 07:09:03;;;;;;;8.85;5.40;;;9.60;69.20;;;;;;2345532;57;21515;-75
2022/04/20 07:11:31;;;;;;;7.35;4.82;;;9.60;69.20;;;;;;2345461;57;21049;-74
2022/04/20 07:13:58;;;;;;;6.82;4.95;;;9.70;68.70;;;;;;2592461;53;21053;-75
2022/04/20 07:16:28;;;;;;;9.35;5.28;;;9.70;68.70;;;;;;2345068;57;21555;-74
2022/04/20 07:18:55;;;;;;;9.82;5.65;;;9.80;69.00;;;;;;2592599;53;21040;-75
2022/04/20 07:21:23;;;;;;;6.95;4.47;;;9.90;69.00;;;;;;2345985;57;21291;-75
2022/04/20 07:23:50;;;;;;;8.48;5.40;;;10.00;68.40;;;;;;2345924;57;21045;-75
2022/04/20 07:26:17;;;;;;;7.80;5.00;;;10.10;67.50;;;;;;2345491;57;21151;-76
2022/04/20 07:28:44;;;;;;;6.55;4.40;;;10.10;68.10;;;;;;2345801;57;21052;-77
2022/04/20 07:31:12;;;;;;;10.95;4.75;;;10.20;67.00;;;;;;2344323;57;21135;-76
2022/04/20 07:33:39;;;;;;;7.60;4.62;;;10.30;67.90;;;;;;2592610;53;21175;-75
2022/04/20 07:36:06;;;;;;;6.57;4.10;;;10.40;66.90;;;;;;2345002;57;21559;-75
2022/04/20 07:38:33;;;;;;;7.45;4.57;;;10.50;66.70;;;;;;2344801;57;21073;-75
2022/04/20 07:41:01;;;;;;;7.57;4.37;;;10.50;66.70;;;;;;2344395;57;21120;-74
2022/04/20 07:43:28;;;;;;;9.45;4.78;;;10.70;66.50;;;;;;2345136;57;21195;-74
2022/04/20 07:45:56;;;;;;;10.80;5.00;;;10.70;66.20;;;;;;2345479;57;21052;-74
2022/04/20 07:48:23;;;;;;;6.12;4.37;;;10.90;65.40;;;;;;2592370;53;21052;-75
2022/04/20 07:50:50;;;;;;;6.25;4.30;;;10.90;64.30;;;;;;2345830;57;21040;-74
2022/04/20 07:53:17;;;;;;;5.87;4.57;;;11.00;65.00;;;;;;2345074;57;21056;-74
2022/04/20 07:55:46;;;;;;;8.93;5.15;;;11.10;64.50;;;;;;2592127;53;21040;-75
2022/04/20 07:58:14;;;;;;;5.95;4.55;;;11.20;64.30;;;;;;2345707;57;21095;-75
2022/04/20 08:00:41;;;;;;;7.53;4.03;;;11.20;64.90;;;;;;2345676;57;21044;-75
2022/04/20 08:03:11;;;;;;;7.80;4.00;;;11.30;64.70;;;;;;2345586;57;21040;-75
2022/04/20 08:05:39;;;;;;;5.93;4.18;;;11.30;64.10;;;;;;2344748;57;21678;-75
2022/04/20 08:08:08;;;;;;;7.20;4.43;;;11.40;63.30;;;;;;2345850;57;21116;-74
2022/04/20 08:10:35;;;;;;;5.43;3.67;;;11.50;63.60;;;;;;2345630;57;21108;-75
2022/04/20 08:14:09;;;;;;;7.45;4.43;;;11.50;63.40;;;;;;2345515;57;21040;-74
2022/04/20 08:16:36;;;;;;;5.75;4.62;;;11.60;62.80;;;;;;2345108;57;21055;-74
2022/04/20 08:19:04;;;;;;;6.80;4.62;;;11.70;62.20;;;;;;2345655;57;21041;-75
2022/04/20 08:21:32;;;;;;;6.28;4.22;;;11.70;62.20;;;;;;2345551;57;21064;-74
2022/04/20 08:23:59;;;;;;;6.82;4.18;;;11.70;61.50;;;;;;2592503;53;21228;-74
2022/04/20 08:26:26;;;;;;;8.18;3.80;;;11.80;62.10;;;;;;2344984;57;21120;-75
2022/04/20 08:28:53;;;;;;;9.15;4.62;;;11.80;62.30;;;;;;2345256;57;21136;-74
2022/04/20 08:31:21;;;;;;;8.02;4.40;;;11.90;63.10;;;;;;2345778;57;21048;-75
2022/04/20 08:33:48;;;;;;;6.43;4.32;;;12.00;62.90;;;;;;2345711;57;21163;-75
2022/04/20 08:36:16;;;;;;;6.32;4.37;;;12.00;62.60;;;;;;2345033;57;21602;-75
2022/04/20 08:38:44;;;;;;;8.48;4.15;;;12.10;62.80;;;;;;2345212;57;21028;-74
2022/04/20 08:41:14;;;;;;;6.60;3.92;;;12.10;62.60;;;;;;2345621;57;21068;-73
2022/04/20 08:43:42;;;;;;;6.15;3.50;;;12.20;62.00;;;;;;2593035;52;21037;-75
2022/04/20 08:46:10;;;;;;;5.85;3.67;;;12.30;60.70;;;;;;2345183;57;21147;-75
2022/04/20 08:48:38;;;;;;;5.47;3.60;;;12.30;60.70;;;;;;2344671;57;21060;-74
2022/04/20 08:51:07;;;;;;;5.78;3.37;;;12.40;61.20;;;;;;2345494;57;21040;-75
2022/04/20 08:53:34;;;;;;;7.03;3.15;;;12.40;60.90;;;;;;2345415;57;21079;-75
2022/04/20 08:58:50;;;;;;;7.05;3.45;;;12.50;58.80;;;;;;2345382;57;21095;-74
2022/04/20 09:01:18;;;;;;;3.58;2.70;;;12.60;58.20;;;;;;2345896;57;21131;-74
2022/04/20 09:03:46;;;;;;;3.28;2.53;;;12.60;58.30;;;;;;2345728;57;21048;-77
2022/04/20 09:06:14;;;;;;;4.22;2.40;;;12.70;57.80;;;;;;2345406;57;21048;-74
2022/04/20 09:08:44;;;;;;;5.00;2.60;;;12.70;57.20;;;;;;2345425;57;21136;-74
2022/04/20 09:11:12;;;;;;;5.18;2.60;;;12.80;56.80;;;;;;2345554;57;21141;-75
2022/04/20 09:13:42;;;;;;;3.90;2.47;;;12.80;56.80;;;;;;2345480;57;21061;-77
2022/04/20 09:16:11;;;;;;;3.67;2.50;;;12.90;56.70;;;;;;2345327;57;21040;-77
2022/04/20 09:18:41;;;;;;;3.90;2.67;;;12.90;56.60;;;;;;2345770;57;21049;-77
2022/04/20 09:21:10;;;;;;;4.82;2.65;;;13.00;56.80;;;;;;2345320;57;21124;-75
2022/04/20 09:23:38;;;;;;;5.82;2.42;;;13.00;56.50;;;;;;2345714;57;21111;-75
2022/04/20 09:26:10;;;;;;;6.07;2.33;;;13.10;57.00;;;;;;2344802;57;21104;-74
2022/04/20 09:28:42;;;;;;;6.97;2.75;;;13.10;56.50;;;;;;2345489;57;21056;-74
2022/04/20 09:31:11;;;;;;;7.15;2.78;;;13.10;55.70;;;;;;2345506;57;21530;-74
2022/04/20 09:33:43;;;;;;;6.15;2.97;;;13.20;56.10;;;;;;2345514;57;21040;-75
2022/04/20 09:36:11;;;;;;;5.87;2.50;;;13.20;55.90;;;;;;2345019;57;21515;-75
2022/04/20 09:38:41;;;;;;;4.07;2.60;;;13.30;55.70;;;;;;2592679;53;21108;-74
2022/04/20 09:41:10;;;;;;;9.18;2.83;;;13.30;55.30;;;;;;2345591;57;21107;-75
2022/04/20 09:43:38;;;;;;;10.88;4.50;;;13.40;55.80;;;;;;2345637;57;21287;-75
2022/04/20 09:48:50;;;;;;;2.60;2.35;;;13.50;55.90;;;;;;2591792;53;21163;-74
2022/04/20 09:51:36;;;;;;;4.10;2.33;;;13.50;55.30;;;;;;2345658;57;21413;-75
2022/04/20 09:54:03;;;;;;;6.03;2.90;;;13.60;55.30;;;;;;2345643;57;21142;-74
2022/04/20 09:56:32;;;;;;;5.15;2.50;;;13.60;54.00;;;;;;2591851;53;21048;-74
2022/04/20 09:59:00;;;;;;;5.35;2.72;;;13.60;54.00;;;;;;2345876;57;21128;-74
2022/04/20 10:01:31;;;;;;;4.55;2.78;;;13.70;54.30;;;;;;2346052;57;21040;-75
2022/04/20 10:04:00;;;;;;;4.60;2.80;;;13.70;54.80;;;;;;2344924;57;21115;-74
2022/04/20 10:06:27;;;;;;;5.12;2.00;;;13.80;54.60;;;;;;2345210;57;21420;-74
2022/04/20 10:08:55;;;;;;;4.72;2.00;;;13.90;54.50;;;;;;2345632;57;21578;-75
2022/04/20 10:11:23;;;;;;;3.97;2.37;;;13.90;53.70;;;;;;2345587;57;21040;-74
2022/04/20 10:16:45;;;;;;;4.03;1.98;;;14.00;53.50;;;;;;2345045;57;21052;-74
2022/04/20 10:19:13;;;;;;;4.40;2.70;;;14.00;53.90;;;;;;2592317;53;21028;-74
2022/04/20 10:21:46;;;;;;;3.95;2.25;;;14.10;53.70;;;;;;2592465;53;21104;-74
2022/04/20 10:24:18;;;;;;;2.80;2.37;;;14.20;54.50;;;;;;2593111;53;21056;-74
2022/04/20 10:26:47;;;;;;;3.87;2.10;;;14.30;54.70;;;;;;2345221;57;21025;-75
2022/04/20 10:29:23;;;;;;;4.75;2.08;;;14.40;53.10;;;;;;2345683;57;21048;-75
2022/04/20 10:31:58;;;;;;;3.72;2.05;;;14.50;52.20;;;;;;2414444;52;21086;-73
2022/04/20 10:34:26;;;;;;;2.72;2.08;;;14.50;52.50;;;;;;2375902;56;21493;-75
2022/04/20 10:36:58;;;;;;;3.90;2.20;;;14.60;53.10;;;;;;2374126;56;21112;-74
2022/04/20 10:39:27;;;;;;;3.50;2.08;;;14.70;53.40;;;;;;2374893;56;21265;-76
2022/04/20 10:42:20;;;;;;;8.63;2.50;;;14.80;53.20;;;;;;2374711;56;21111;-75
2022/04/20 10:44:51;;;;;;;3.65;2.22;;;14.90;51.60;;;;;;2374542;56;21112;-75
2022/04/20 10:47:25;;;;;;;3.22;2.22;;;14.90;52.20;;;;;;2373981;56;21040;-75
2022/04/20 10:49:54;;;;;;;4.12;2.15;;;15.00;52.70;;;;;;2628065;52;21016;-75
2022/04/20 10:52:25;;;;;;;4.18;2.22;;;15.10;52.20;;;;;;2374728;56;21041;-75
2022/04/20 10:54:53;;;;;;;2.70;1.98;;;15.20;51.60;;;;;;2374572;56;21128;-74
2022/04/20 10:57:34;;;;;;;4.20;1.70;;;15.30;50.80;;;;;;2374248;56;21087;-74
2022/04/20 11:00:27;;;;;;;4.37;2.08;;;15.40;50.90;;;;;;2628359;52;21049;-75
2022/04/20 11:03:00;;;;;;;2.90;1.97;;;15.60;51.70;;;;;;2375282;56;21063;-74
2022/04/20 11:05:27;;;;;;;2.78;2.30;;;15.70;50.80;;;;;;2374348;56;21119;-74
2022/04/20 11:08:06;;;;;;;2.08;1.73;;;15.80;50.70;;;;;;2374345;56;21083;-74
2022/04/20 11:10:34;;;;;;;3.67;2.15;;;15.80;50.50;;;;;;2374369;56;21108;-77
2022/04/20 11:19:07;;;;;;;3.30;1.55;;;16.00;48.50;;;;;;2347731;57;21097;-73
2022/04/20 11:21:36;;;;;;;3.87;2.30;;;16.10;49.30;;;;;;2593884;53;21039;-75
2022/04/20 11:24:08;;;;;;;2.58;1.98;;;16.10;48.10;;;;;;2347890;57;21033;-75
2022/04/20 11:26:39;;;;;;;3.97;2.22;;;16.10;48.70;;;;;;2594782;52;21110;-75
2022/04/20 11:29:11;;;;;;;1.95;1.60;;;16.20;48.60;;;;;;2595335;53;22024;-75
2022/04/20 11:31:42;;;;;;;3.55;2.00;;;16.30;48.50;;;;;;2348044;57;21199;-73
2022/04/20 11:34:10;;;;;;;4.05;1.95;;;16.40;48.70;;;;;;2595654;53;21049;-75
2022/04/20 11:36:41;;;;;;;5.00;1.95;;;16.50;49.00;;;;;;2346387;57;21101;-75
2022/04/20 11:39:09;;;;;;;4.32;2.17;;;16.50;48.80;;;;;;2595195;53;21054;-75
2022/04/20 11:41:36;;;;;;;2.87;2.22;;;16.50;48.10;;;;;;2347486;57;21106;-75
2022/04/20 11:44:19;;;;;;;2.53;1.83;;;16.60;48.00;;;;;;2347926;57;21125;-75
2022/04/20 11:46:47;;;;;;;4.43;2.20;;;16.60;48.10;;;;;;2593632;52;21530;-75
2022/04/20 11:49:14;;;;;;;2.87;2.10;;;16.70;48.10;;;;;;2347480;57;21054;-75
2022/04/20 11:51:46;;;;;;;3.70;2.03;;;16.80;47.50;;;;;;2347170;57;21057;-75
2022/04/20 11:54:19;;;;;;;3.45;2.10;;;16.90;48.20;;;;;;2343976;57;21164;-76
2022/04/20 11:56:46;;;;;;;4.03;1.90;;;16.90;47.70;;;;;;2346169;57;21046;-75
2022/04/20 11:59:17;;;;;;;2.40;1.87;;;17.00;46.80;;;;;;2346625;57;21119;-75
2022/04/20 12:01:45;;;;;;;3.37;1.73;;;17.00;47.30;;;;;;2346820;57;21046;-75
2022/04/20 12:04:14;;;;;;;1.80;1.50;;;17.10;47.00;;;;;;2345918;57;21041;-76
2022/04/20 12:06:46;;;;;;;5.53;2.47;;;17.20;46.60;;;;;;2346320;57;21093;-76
2022/04/20 12:09:14;;;;;;;3.92;1.75;;;17.30;46.30;;;;;;2594317;53;21113;-75
2022/04/20 12:11:42;;;;;;;2.45;1.87;;;17.30;46.90;;;;;;2346807;57;21046;-77
2022/04/20 12:14:11;;;;;;;1.75;1.60;;;17.40;46.10;;;;;;2346846;57;21037;-76
2022/04/20 12:16:40;;;;;;;2.80;1.65;;;17.40;45.50;;;;;;2346493;57;21113;-76
2022/04/20 12:19:08;;;;;;;4.60;1.80;;;17.40;45.10;;;;;;2346557;57;21373;-76
2022/04/20 12:24:21;;;;;;;2.75;1.40;;;17.50;45.70;;;;;;2355100;57;22623;-72
2022/04/20 12:26:50;;;;;;;2.65;1.80;;;17.60;45.70;;;;;;2362943;56;21541;-75
2022/04/20 12:29:20;;;;;;;4.43;1.58;;;17.70;45.30;;;;;;2374847;56;21031;-75
2022/04/20 12:31:49;;;;;;;1.73;1.40;;;17.70;44.80;;;;;;2374553;56;21042;-75
2022/04/20 12:34:18;;;;;;;2.80;1.80;;;17.70;44.30;;;;;;2374396;56;21620;-74
2022/04/20 12:36:53;;;;;;;3.37;1.60;;;17.80;45.10;;;;;;2626395;52;21046;-76
2022/04/20 12:39:35;;;;;;;1.50;1.35;;;17.80;44.10;;;;;;2374005;56;21098;-75
2022/04/20 12:42:06;;;;;;;3.03;1.40;;;17.90;44.50;;;;;;2373963;56;21098;-76
2022/04/20 12:44:48;;;;;;;1.73;1.62;;;17.90;44.90;;;;;;2374405;56;21094;-76
2022/04/20 12:47:39;;;;;;;1.75;1.50;;;17.90;44.10;;;;;;2374198;56;21070;-75
2022/04/20 12:50:21;;;;;;;1.52;1.42;;;18.00;44.50;;;;;;2374375;56;21095;-76
2022/04/20 12:53:01;;;;;;;2.33;1.35;;;18.00;43.20;;;;;;2627357;52;21050;-76
2022/04/20 13:04:13;;;;;;;2.00;1.52;;;18.10;44.00;;;;;;2374476;56;21549;-76
2022/04/20 13:06:41;;;;;;;2.70;1.85;;;18.10;44.10;;;;;;2374266;56;21043;-75
2022/04/20 13:09:08;;;;;;;1.42;1.27;;;18.10;44.00;;;;;;2627163;52;21432;-73
2022/04/20 13:11:35;;;;;;;2.37;1.50;;;18.20;43.60;;;;;;2373734;56;21055;-76
2022/04/20 13:14:03;;;;;;;3.17;1.80;;;18.20;43.70;;;;;;2374527;56;21046;-74
2022/04/20 13:16:31;;;;;;;1.67;1.48;;;18.20;43.70;;;;;;2374142;56;21047;-76
2022/04/20 13:18:59;;;;;;;2.12;1.50;;;18.30;42.40;;;;;;2374370;56;21588;-74
2022/04/20 13:21:27;;;;;;;2.67;1.65;;;18.30;42.40;;;;;;2374658;56;21097;-76
2022/04/20 13:23:54;;;;;;;9.85;2.20;;;18.40;44.30;;;;;;2374286;56;21176;-72
2022/04/20 13:29:08;;;;;;;4.35;1.60;;;18.50;44.10;;;;;;2373005;56;20999;-76
2022/04/20 13:31:36;;;;;;;2.53;1.85;;;18.50;43.50;;;;;;2374797;56;21605;-75
2022/04/20 13:34:03;;;;;;;7.40;1.65;;;18.60;43.40;;;;;;2373551;56;21027;-75
2022/04/20 13:36:31;;;;;;;2.28;1.40;;;18.60;43.70;;;;;;2625528;52;21416;-76
2022/04/20 13:38:58;;;;;;;5.78;1.85;;;18.60;44.50;;;;;;2626027;52;21050;-73
2022/04/20 13:41:25;;;;;;;2.75;1.40;;;18.60;43.80;;;;;;2373613;56;21111;-76
2022/04/20 13:43:53;;;;;;;2.08;1.30;;;18.70;42.60;;;;;;2626634;52;21046;-76
2022/04/20 13:46:20;;;;;;;2.00;1.80;;;18.80;43.30;;;;;;2625830;52;21087;-76